sensor_id;sensor_type;location;lat;lon;timestamp;pressure;altitude;pressure_sealevel;temperature;humidity
11676;BME280;5894;42.768;23.404;2024-02-23T00:01:56;95407.25;;;7.08;100.00
11676;BME280;5894;42.768;23.404;2024-02-23T00:04:23;95435.66;;;7.25;100.00
11676;BME280;5894;42.768;23.404;2024-02-23T00:06:51;95397.97;;;6.97;100.00
11676;BME280;5894;42.768;23.404;2024-02-23T00:09:19;95428.13;;;7.18;100.00
11676;BME280;5894;42.768;23.404;2024-02-23T00:11:46;95434.28;;;7.27;100.00
11676;BME280;5894;42.768;23.404;2024-02-23T00:14:15;95429.25;;;7.31;100.00
11676;BME280;5894;42.768;23.404;2024-02-23T00:16:44;95425.03;;;7.35;100.00
11676;BME280;5894;42.768;23.404;2024-02-23T00:19:11;95421.16;;;7.27;100.00
11676;BME280;5894;42.768;23.404;2024-02-23T00:21:38;95425.31;;;7.33;100.00
11676;BME280;5894;42.768;23.404;2024-02-23T00:24:07;95428.69;;;7.34;100.00
11676;BME280;5894;42.768;23.404;2024-02-23T00:26:34;95417.94;;;7.35;100.00
11676;BME280;5894;42.768;23.404;2024-02-23T00:29:02;95401.75;;;7.28;100.00
11676;BME280;5894;42.768;23.404;2024-02-23T00:31:29;95407.34;;;7.22;100.00
11676;BME280;5894;42.768;23.404;2024-02-23T00:33:56;95393.66;;;7.06;100.00
11676;BME280;5894;42.768;23.404;2024-02-23T00:36:24;95403.94;;;7.21;100.00
11676;BME280;5894;42.768;23.404;2024-02-23T00:38:51;95401.69;;;7.33;100.00
11676;BME280;5894;42.768;23.404;2024-02-23T00:41:19;95386.88;;;7.43;100.00
11676;BME280;5894;42.768;23.404;2024-02-23T00:43:46;95383.81;;;7.35;100.00
11676;BME280;5894;42.768;23.404;2024-02-23T00:46:13;95383.38;;;7.28;100.00
11676;BME280;5894;42.768;23.404;2024-02-23T00:48:41;95386.00;;;7.28;100.00
11676;BME280;5894;42.768;23.404;2024-02-23T00:51:08;95389.41;;;7.29;100.00
11676;BME280;5894;42.768;23.404;2024-02-23T00:53:35;95376.81;;;7.31;100.00
11676;BME280;5894;42.768;23.404;2024-02-23T00:56:02;95374.47;;;7.29;100.00
11676;BME280;5894;42.768;23.404;2024-02-23T00:58:31;95378.09;;;7.33;100.00
11676;BME280;5894;42.768;23.404;2024-02-23T01:00:59;95367.31;;;7.35;100.00
11676;BME280;5894;42.768;23.404;2024-02-23T01:03:26;95380.63;;;7.38;100.00
11676;BME280;5894;42.768;23.404;2024-02-23T01:05:53;95385.31;;;7.42;100.00
11676;BME280;5894;42.768;23.404;2024-02-23T01:08:20;95371.34;;;7.46;100.00
11676;BME280;5894;42.768;23.404;2024-02-23T01:10:47;95364.31;;;7.42;100.00
11676;BME280;5894;42.768;23.404;2024-02-23T01:13:14;95356.69;;;7.26;100.00
11676;BME280;5894;42.768;23.404;2024-02-23T01:15:42;95371.28;;;7.32;100.00
11676;BME280;5894;42.768;23.404;2024-02-23T01:18:09;95370.63;;;7.22;100.00
11676;BME280;5894;42.768;23.404;2024-02-23T01:20:36;95371.91;;;7.24;100.00
11676;BME280;5894;42.768;23.404;2024-02-23T01:23:03;95372.06;;;7.33;100.00
11676;BME280;5894;42.768;23.404;2024-02-23T01:25:30;95355.47;;;7.19;100.00
11676;BME280;5894;42.768;23.404;2024-02-23T01:28:00;95352.28;;;7.22;100.00
11676;BME280;5894;42.768;23.404;2024-02-23T01:30:28;95352.28;;;7.22;100.00
11676;BME280;5894;42.768;23.404;2024-02-23T01:32:57;95361.28;;;7.16;100.00
11676;BME280;5894;42.768;23.404;2024-02-23T01:35:24;95350.72;;;7.02;100.00
11676;BME280;5894;42.768;23.404;2024-02-23T01:37:51;95351.13;;;7.09;100.00
11676;BME280;5894;42.768;23.404;2024-02-23T01:40:18;95347.81;;;7.22;100.00
11676;BME280;5894;42.768;23.404;2024-02-23T01:42:45;95351.22;;;7.23;100.00
11676;BME280;5894;42.768;23.404;2024-02-23T01:45:12;95345.97;;;7.23;100.00
11676;BME280;5894;42.768;23.404;2024-02-23T01:47:39;95338.16;;;7.18;100.00
11676;BME280;5894;42.768;23.404;2024-02-23T01:50:08;95334.00;;;6.98;100.00
11676;BME280;5894;42.768;23.404;2024-02-23T01:52:38;95334.28;;;6.96;100.00
11676;BME280;5894;42.768;23.404;2024-02-23T01:55:06;95329.63;;;6.93;100.00
11676;BME280;5894;42.768;23.404;2024-02-23T01:57:33;95347.47;;;6.91;100.00
11676;BME280;5894;42.768;23.404;2024-02-23T02:00:00;95334.06;;;6.93;100.00
11676;BME280;5894;42.768;23.404;2024-02-23T02:02:30;95336.34;;;6.99;100.00
11676;BME280;5894;42.768;23.404;2024-02-23T02:04:57;95326.13;;;6.98;100.00
11676;BME280;5894;42.768;23.404;2024-02-23T02:07:25;95342.22;;;7.10;100.00
11676;BME280;5894;42.768;23.404;2024-02-23T02:09:52;95313.16;;;7.07;100.00
11676;BME280;5894;42.768;23.404;2024-02-23T02:12:26;95331.28;;;7.22;100.00
11676;BME280;5894;42.768;23.404;2024-02-23T02:14:53;95333.06;;;7.26;100.00
11676;BME280;5894;42.768;23.404;2024-02-23T02:17:21;95332.50;;;7.29;100.00
11676;BME280;5894;42.768;23.404;2024-02-23T02:19:48;95334.81;;;7.31;100.00
11676;BME280;5894;42.768;23.404;2024-02-23T02:22:15;95331.09;;;7.37;100.00
11676;BME280;5894;42.768;23.404;2024-02-23T02:24:43;95330.59;;;7.35;100.00
11676;BME280;5894;42.768;23.404;2024-02-23T02:27:12;95338.94;;;7.37;100.00
11676;BME280;5894;42.768;23.404;2024-02-23T02:29:39;95341.56;;;7.37;100.00
11676;BME280;5894;42.768;23.404;2024-02-23T02:32:06;95337.16;;;7.32;100.00
11676;BME280;5894;42.768;23.404;2024-02-23T02:34:34;95343.75;;;7.30;100.00
11676;BME280;5894;42.768;23.404;2024-02-23T02:37:01;95341.50;;;7.23;100.00
11676;BME280;5894;42.768;23.404;2024-02-23T02:39:28;95340.22;;;7.21;100.00
11676;BME280;5894;42.768;23.404;2024-02-23T02:41:57;95346.03;;;7.18;100.00
11676;BME280;5894;42.768;23.404;2024-02-23T02:44:24;95337.84;;;7.06;100.00
11676;BME280;5894;42.768;23.404;2024-02-23T02:46:52;95345.25;;;6.98;100.00
11676;BME280;5894;42.768;23.404;2024-02-23T02:49:19;95305.44;;;6.78;100.00
11676;BME280;5894;42.768;23.404;2024-02-23T02:51:46;95347.09;;;6.98;100.00
11676;BME280;5894;42.768;23.404;2024-02-23T02:54:12;95341.66;;;6.94;100.00
11676;BME280;5894;42.768;23.404;2024-02-23T02:56:42;95336.63;;;6.98;100.00
11676;BME280;5894;42.768;23.404;2024-02-23T02:59:10;95342.63;;;6.98;100.00
11676;BME280;5894;42.768;23.404;2024-02-23T03:01:37;95339.81;;;6.95;100.00
11676;BME280;5894;42.768;23.404;2024-02-23T03:04:05;95341.66;;;6.94;100.00
11676;BME280;5894;42.768;23.404;2024-02-23T03:06:32;95347.47;;;6.91;100.00
11676;BME280;5894;42.768;23.404;2024-02-23T03:08:59;95347.25;;;6.88;100.00
11676;BME280;5894;42.768;23.404;2024-02-23T03:11:26;95339.09;;;6.89;100.00
11676;BME280;5894;42.768;23.404;2024-02-23T03:13:53;95345.13;;;6.90;100.00
11676;BME280;5894;42.768;23.404;2024-02-23T03:16:21;95343.84;;;6.87;100.00
11676;BME280;5894;42.768;23.404;2024-02-23T03:18:51;95349.44;;;6.99;100.00
11676;BME280;5894;42.768;23.404;2024-02-23T03:21:19;95346.81;;;6.99;100.00
11676;BME280;5894;42.768;23.404;2024-02-23T03:23:46;95357.81;;;7.02;100.00
11676;BME280;5894;42.768;23.404;2024-02-23T03:26:14;95346.91;;;6.94;100.00
11676;BME280;5894;42.768;23.404;2024-02-23T03:28:42;95345.94;;;6.85;100.00
11676;BME280;5894;42.768;23.404;2024-02-23T03:31:09;95339.22;;;6.79;100.00
11676;BME280;5894;42.768;23.404;2024-02-23T03:33:38;95341.50;;;6.86;100.00
11676;BME280;5894;42.768;23.404;2024-02-23T03:36:05;95347.97;;;6.93;100.00
11676;BME280;5894;42.768;23.404;2024-02-23T03:38:32;95343.69;;;6.97;100.00
11676;BME280;5894;42.768;23.404;2024-02-23T03:40:59;95348.81;;;7.08;100.00
11676;BME280;5894;42.768;23.404;2024-02-23T03:43:27;95340.66;;;7.09;100.00
11676;BME280;5894;42.768;23.404;2024-02-23T03:45:54;95343.00;;;7.11;100.00
11676;BME280;5894;42.768;23.404;2024-02-23T03:48:21;95343.50;;;7.13;100.00
11676;BME280;5894;42.768;23.404;2024-02-23T03:50:49;95339.59;;;7.10;100.00
11676;BME280;5894;42.768;23.404;2024-02-23T03:53:16;95347.47;;;7.10;100.00
11676;BME280;5894;42.768;23.404;2024-02-23T03:55:43;95343.78;;;7.11;100.00
11676;BME280;5894;42.768;23.404;2024-02-23T03:58:11;95338.03;;;7.09;100.00
11676;BME280;5894;42.768;23.404;2024-02-23T04:00:38;95349.31;;;7.10;100.00
11676;BME280;5894;42.768;23.404;2024-02-23T04:03:05;95341.81;;;7.03;100.00
11676;BME280;5894;42.768;23.404;2024-02-23T04:05:32;95350.44;;;7.04;100.00
11676;BME280;5894;42.768;23.404;2024-02-23T04:08:01;95347.81;;;7.04;100.00
11676;BME280;5894;42.768;23.404;2024-02-23T04:10:28;95342.78;;;7.07;100.00
11676;BME280;5894;42.768;23.404;2024-02-23T04:12:55;95344.84;;;7.10;100.00
11676;BME280;5894;42.768;23.404;2024-02-23T04:15:22;95352.44;;;7.12;100.00
11676;BME280;5894;42.768;23.404;2024-02-23T04:17:49;95353.44;;;7.16;100.00
11676;BME280;5894;42.768;23.404;2024-02-23T04:20:16;95354.41;;;7.20;100.00
11676;BME280;5894;42.768;23.404;2024-02-23T04:22:43;95358.03;;;7.24;100.00
11676;BME280;5894;42.768;23.404;2024-02-23T04:25:12;95353.84;;;7.23;100.00
11676;BME280;5894;42.768;23.404;2024-02-23T04:27:39;95353.34;;;7.21;100.00
11676;BME280;5894;42.768;23.404;2024-02-23T04:30:07;95353.06;;;7.22;100.00
11676;BME280;5894;42.768;23.404;2024-02-23T04:32:34;95355.19;;;7.20;100.00
11676;BME280;5894;42.768;23.404;2024-02-23T04:35:01;95337.75;;;7.11;100.00
11676;BME280;5894;42.768;23.404;2024-02-23T04:37:28;95355.28;;;7.15;100.00
11676;BME280;5894;42.768;23.404;2024-02-23T04:39:55;95354.81;;;7.08;100.00
11676;BME280;5894;42.768;23.404;2024-02-23T04:42:24;95356.75;;;6.84;100.00
11676;BME280;5894;42.768;23.404;2024-02-23T04:44:51;95354.53;;;6.91;100.00
11676;BME280;5894;42.768;23.404;2024-02-23T04:47:20;95346.97;;;6.89;100.00
11676;BME280;5894;42.768;23.404;2024-02-23T04:49:46;95357.56;;;6.79;100.00
11676;BME280;5894;42.768;23.404;2024-02-23T04:52:15;95348.78;;;6.70;100.00
11676;BME280;5894;42.768;23.404;2024-02-23T04:54:42;95354.16;;;6.60;100.00
11676;BME280;5894;42.768;23.404;2024-02-23T04:57:09;95354.97;;;6.55;100.00
11676;BME280;5894;42.768;23.404;2024-02-23T04:59:38;95352.03;;;6.38;100.00
11676;BME280;5894;42.768;23.404;2024-02-23T05:02:05;95349.78;;;6.32;100.00
11676;BME280;5894;42.768;23.404;2024-02-23T05:04:32;95341.72;;;6.23;100.00
11676;BME280;5894;42.768;23.404;2024-02-23T05:06:59;95351.56;;;6.12;100.00
11676;BME280;5894;42.768;23.404;2024-02-23T05:09:27;95353.16;;;6.08;100.00
11676;BME280;5894;42.768;23.404;2024-02-23T05:11:54;95352.72;;;6.01;100.00
11676;BME280;5894;42.768;23.404;2024-02-23T05:14:22;95349.69;;;5.84;100.00
11676;BME280;5894;42.768;23.404;2024-02-23T05:16:50;95359.97;;;5.75;100.00
11676;BME280;5894;42.768;23.404;2024-02-23T05:19:17;95353.25;;;5.64;100.00
11676;BME280;5894;42.768;23.404;2024-02-23T05:21:44;95357.97;;;5.62;100.00
11676;BME280;5894;42.768;23.404;2024-02-23T05:24:11;95366.88;;;5.61;100.00
11676;BME280;5894;42.768;23.404;2024-02-23T05:26:38;95366.66;;;5.58;100.00
11676;BME280;5894;42.768;23.404;2024-02-23T05:29:05;95367.66;;;5.62;100.00
11676;BME280;5894;42.768;23.404;2024-02-23T05:31:46;95351.78;;;5.53;100.00
11676;BME280;5894;42.768;23.404;2024-02-23T05:34:15;95377.13;;;5.58;100.00
11676;BME280;5894;42.768;23.404;2024-02-23T05:36:42;95371.50;;;5.40;100.00
11676;BME280;5894;42.768;23.404;2024-02-23T05:39:09;95376.88;;;5.54;100.00
11676;BME280;5894;42.768;23.404;2024-02-23T05:41:36;95369.03;;;5.54;100.00
11676;BME280;5894;42.768;23.404;2024-02-23T05:44:04;95337.28;;;5.37;100.00
11676;BME280;5894;42.768;23.404;2024-02-23T05:46:31;95373.31;;;5.74;100.00
11676;BME280;5894;42.768;23.404;2024-02-23T05:48:59;95373.28;;;5.79;100.00
11676;BME280;5894;42.768;23.404;2024-02-23T05:51:27;95370.56;;;5.94;100.00
11676;BME280;5894;42.768;23.404;2024-02-23T05:53:56;95381.59;;;5.86;100.00
11676;BME280;5894;42.768;23.404;2024-02-23T05:56:23;95381.72;;;6.05;100.00
11676;BME280;5894;42.768;23.404;2024-02-23T05:58:51;95384.97;;;6.20;100.00
11676;BME280;5894;42.768;23.404;2024-02-23T06:01:18;95390.31;;;6.34;100.00
11676;BME280;5894;42.768;23.404;2024-02-23T06:03:45;95388.31;;;6.50;100.00
11676;BME280;5894;42.768;23.404;2024-02-23T06:06:12;95393.72;;;6.58;100.00
11676;BME280;5894;42.768;23.404;2024-02-23T06:08:41;95395.69;;;6.72;100.00
11676;BME280;5894;42.768;23.404;2024-02-23T06:11:09;95406.09;;;6.77;100.00
11676;BME280;5894;42.768;23.404;2024-02-23T06:13:36;95403.19;;;6.78;100.00
11676;BME280;5894;42.768;23.404;2024-02-23T06:16:04;95410.50;;;6.81;100.00
11676;BME280;5894;42.768;23.404;2024-02-23T06:18:31;95415.00;;;6.76;100.00
11676;BME280;5894;42.768;23.404;2024-02-23T06:20:58;95414.09;;;6.85;100.00
11676;BME280;5894;42.768;23.404;2024-02-23T06:23:25;95408.47;;;6.97;100.00
11676;BME280;5894;42.768;23.404;2024-02-23T06:25:53;95413.66;;;7.02;100.00
11676;BME280;5894;42.768;23.404;2024-02-23T06:28:20;95415.09;;;7.13;100.00
11676;BME280;5894;42.768;23.404;2024-02-23T06:30:47;95418.34;;;7.24;100.00
11676;BME280;5894;42.768;23.404;2024-02-23T06:33:14;95413.81;;;7.29;100.00
11676;BME280;5894;42.768;23.404;2024-02-23T06:35:42;95411.13;;;7.34;100.00
11676;BME280;5894;42.768;23.404;2024-02-23T06:38:09;95410.97;;;7.45;100.00
11676;BME280;5894;42.768;23.404;2024-02-23T06:40:36;95417.13;;;7.54;100.00
11676;BME280;5894;42.768;23.404;2024-02-23T06:43:05;95417.47;;;7.66;100.00
11676;BME280;5894;42.768;23.404;2024-02-23T06:45:32;95414.03;;;7.84;100.00
11676;BME280;5894;42.768;23.404;2024-02-23T06:47:59;95415.16;;;7.97;100.00
11676;BME280;5894;42.768;23.404;2024-02-23T06:50:26;95403.50;;;8.03;100.00
11676;BME280;5894;42.768;23.404;2024-02-23T06:52:53;95400.44;;;8.28;100.00
11676;BME280;5894;42.768;23.404;2024-02-23T06:55:20;95418.41;;;8.40;100.00
11676;BME280;5894;42.768;23.404;2024-02-23T06:57:47;95427.06;;;8.54;100.00
11676;BME280;5894;42.768;23.404;2024-02-23T07:00:15;95431.06;;;8.65;100.00
11676;BME280;5894;42.768;23.404;2024-02-23T07:02:42;95439.75;;;8.79;100.00
11676;BME280;5894;42.768;23.404;2024-02-23T07:05:09;95434.84;;;8.87;100.00
11676;BME280;5894;42.768;23.404;2024-02-23T07:07:36;95423.06;;;8.98;100.00
11676;BME280;5894;42.768;23.404;2024-02-23T07:10:03;95431.81;;;9.07;100.00
11676;BME280;5894;42.768;23.404;2024-02-23T07:12:30;95436.88;;;9.17;100.00
11676;BME280;5894;42.768;23.404;2024-02-23T07:14:57;95414.09;;;9.12;100.00
11676;BME280;5894;42.768;23.404;2024-02-23T07:17:25;95436.75;;;9.36;100.00
11676;BME280;5894;42.768;23.404;2024-02-23T07:19:53;95442.75;;;9.50;100.00
11676;BME280;5894;42.768;23.404;2024-02-23T07:22:28;95436.00;;;9.57;100.00
11676;BME280;5894;42.768;23.404;2024-02-23T07:24:55;95433.56;;;9.61;100.00
11676;BME280;5894;42.768;23.404;2024-02-23T07:27:22;95440.44;;;9.71;100.00
11676;BME280;5894;42.768;23.404;2024-02-23T07:29:49;95444.06;;;9.75;100.00
11676;BME280;5894;42.768;23.404;2024-02-23T07:32:16;95435.66;;;9.73;100.00
11676;BME280;5894;42.768;23.404;2024-02-23T07:34:45;95440.03;;;9.77;100.00
11676;BME280;5894;42.768;23.404;2024-02-23T07:37:13;95425.19;;;9.81;100.00
11676;BME280;5894;42.768;23.404;2024-02-23T07:39:40;95434.72;;;9.91;100.00
11676;BME280;5894;42.768;23.404;2024-02-23T07:42:07;95431.97;;;9.96;100.00
11676;BME280;5894;42.768;23.404;2024-02-23T07:44:36;95432.31;;;10.03;100.00
11676;BME280;5894;42.768;23.404;2024-02-23T07:47:04;95435.00;;;10.12;100.00
11676;BME280;5894;42.768;23.404;2024-02-23T07:49:31;95430.63;;;10.07;100.00
11676;BME280;5894;42.768;23.404;2024-02-23T07:52:00;95445.63;;;10.20;100.00
11676;BME280;5894;42.768;23.404;2024-02-23T07:54:27;95437.91;;;10.24;100.00
11676;BME280;5894;42.768;23.404;2024-02-23T07:56:55;95434.69;;;10.27;100.00
11676;BME280;5894;42.768;23.404;2024-02-23T07:59:23;95435.91;;;10.29;100.00
11676;BME280;5894;42.768;23.404;2024-02-23T08:01:50;95437.66;;;10.34;100.00
11676;BME280;5894;42.768;23.404;2024-02-23T08:04:18;95428.47;;;10.32;100.00
11676;BME280;5894;42.768;23.404;2024-02-23T08:06:45;95434.72;;;10.36;100.00
11676;BME280;5894;42.768;23.404;2024-02-23T08:09:14;95432.41;;;10.43;100.00
11676;BME280;5894;42.768;23.404;2024-02-23T08:11:41;95441.75;;;10.49;100.00
11676;BME280;5894;42.768;23.404;2024-02-23T08:14:07;95438.03;;;10.50;100.00
11676;BME280;5894;42.768;23.404;2024-02-23T08:16:35;95440.66;;;10.50;100.00
11676;BME280;5894;42.768;23.404;2024-02-23T08:19:03;95437.47;;;10.61;100.00
11676;BME280;5894;42.768;23.404;2024-02-23T08:21:30;95437.50;;;10.70;100.00
11676;BME280;5894;42.768;23.404;2024-02-23T08:23:57;95440.75;;;10.67;100.00
11676;BME280;5894;42.768;23.404;2024-02-23T08:26:25;95437.19;;;10.72;100.00
11676;BME280;5894;42.768;23.404;2024-02-23T08:28:53;95442.78;;;10.70;100.00
11676;BME280;5894;42.768;23.404;2024-02-23T08:31:20;95439.88;;;10.80;100.00
11676;BME280;5894;42.768;23.404;2024-02-23T08:33:47;95440.53;;;10.86;100.00
11676;BME280;5894;42.768;23.404;2024-02-23T08:36:14;95454.50;;;10.95;100.00
11676;BME280;5894;42.768;23.404;2024-02-23T08:38:41;95434.03;;;11.00;100.00
11676;BME280;5894;42.768;23.404;2024-02-23T08:41:08;95443.84;;;11.09;100.00
11676;BME280;5894;42.768;23.404;2024-02-23T08:43:37;95442.44;;;11.11;100.00
11676;BME280;5894;42.768;23.404;2024-02-23T08:46:04;95433.28;;;11.00;100.00
11676;BME280;5894;42.768;23.404;2024-02-23T08:48:32;95432.84;;;11.15;98.87
11676;BME280;5894;42.768;23.404;2024-02-23T08:50:59;95434.09;;;11.18;100.00
11676;BME280;5894;42.768;23.404;2024-02-23T08:53:26;95432.72;;;11.20;99.46
11676;BME280;5894;42.768;23.404;2024-02-23T08:55:53;95444.50;;;11.23;96.84
11676;BME280;5894;42.768;23.404;2024-02-23T08:58:20;95444.19;;;11.33;94.47
11676;BME280;5894;42.768;23.404;2024-02-23T09:00:49;95444.06;;;11.38;93.89
11676;BME280;5894;42.768;23.404;2024-02-23T09:03:16;95408.66;;;11.30;91.64
11676;BME280;5894;42.768;23.404;2024-02-23T09:05:43;95440.19;;;11.53;89.78
11676;BME280;5894;42.768;23.404;2024-02-23T09:08:12;95448.56;;;11.63;89.94
11676;BME280;5894;42.768;23.404;2024-02-23T09:10:39;95439.56;;;11.64;93.08
11676;BME280;5894;42.768;23.404;2024-02-23T09:13:06;95437.69;;;11.73;89.76
11676;BME280;5894;42.768;23.404;2024-02-23T09:15:33;95438.97;;;11.85;92.67
11676;BME280;5894;42.768;23.404;2024-02-23T09:18:02;95427.66;;;11.93;93.41
11676;BME280;5894;42.768;23.404;2024-02-23T09:20:29;95439.31;;;11.92;94.13
11676;BME280;5894;42.768;23.404;2024-02-23T09:22:57;95443.94;;;11.95;90.31
11676;BME280;5894;42.768;23.404;2024-02-23T09:25:24;95434.00;;;12.09;88.67
11676;BME280;5894;42.768;23.404;2024-02-23T09:27:51;95430.72;;;12.21;88.95
11676;BME280;5894;42.768;23.404;2024-02-23T09:30:19;95434.59;;;12.23;90.02
11676;BME280;5894;42.768;23.404;2024-02-23T09:32:46;95434.75;;;12.35;90.76
11676;BME280;5894;42.768;23.404;2024-02-23T09:35:15;95435.94;;;12.38;89.80
11676;BME280;5894;42.768;23.404;2024-02-23T09:37:42;95434.06;;;12.47;91.06
11676;BME280;5894;42.768;23.404;2024-02-23T09:40:09;95426.56;;;12.58;88.85
11676;BME280;5894;42.768;23.404;2024-02-23T09:42:38;95422.34;;;12.65;83.02
11676;BME280;5894;42.768;23.404;2024-02-23T09:45:06;95423.09;;;12.74;82.04
11676;BME280;5894;42.768;23.404;2024-02-23T09:47:34;95431.63;;;12.80;80.20
11676;BME280;5894;42.768;23.404;2024-02-23T09:50:04;95426.63;;;12.87;82.39
11676;BME280;5894;42.768;23.404;2024-02-23T09:52:32;95413.47;;;12.99;86.56
11676;BME280;5894;42.768;23.404;2024-02-23T09:55:00;95412.66;;;13.07;85.89
11676;BME280;5894;42.768;23.404;2024-02-23T09:57:29;95420.06;;;13.22;81.42
11676;BME280;5894;42.768;23.404;2024-02-23T09:59:56;95412.38;;;13.30;78.47
11676;BME280;5894;42.768;23.404;2024-02-23T10:02:24;95413.69;;;13.44;76.64
11676;BME280;5894;42.768;23.404;2024-02-23T10:04:54;95408.22;;;13.49;80.55
11676;BME280;5894;42.768;23.404;2024-02-23T10:07:23;95294.16;;;12.83;77.10
11676;BME280;5894;42.768;23.404;2024-02-23T10:09:53;95390.47;;;13.62;77.31
11676;BME280;5894;42.768;23.404;2024-02-23T10:12:21;95409.16;;;13.86;72.77
11676;BME280;5894;42.768;23.404;2024-02-23T10:14:48;95391.56;;;13.82;76.34
11676;BME280;5894;42.768;23.404;2024-02-23T10:17:15;95419.44;;;13.88;75.92
11676;BME280;5894;42.768;23.404;2024-02-23T10:19:44;95397.38;;;13.96;72.33
11676;BME280;5894;42.768;23.404;2024-02-23T10:22:11;95390.25;;;14.09;74.78
11676;BME280;5894;42.768;23.404;2024-02-23T10:24:38;95381.75;;;14.15;73.39
11676;BME280;5894;42.768;23.404;2024-02-23T10:27:07;95383.66;;;14.27;74.06
11676;BME280;5894;42.768;23.404;2024-02-23T10:29:34;95391.78;;;14.43;70.95
11676;BME280;5894;42.768;23.404;2024-02-23T10:32:01;95384.94;;;14.54;72.05
11676;BME280;5894;42.768;23.404;2024-02-23T10:34:29;95382.84;;;14.59;73.32
11676;BME280;5894;42.768;23.404;2024-02-23T10:36:57;95375.22;;;14.58;68.08
11676;BME280;5894;42.768;23.404;2024-02-23T10:39:29;95358.75;;;14.64;69.44
11676;BME280;5894;42.768;23.404;2024-02-23T10:41:57;95361.72;;;14.75;71.26
11676;BME280;5894;42.768;23.404;2024-02-23T10:44:28;95351.56;;;14.89;70.56
11676;BME280;5894;42.768;23.404;2024-02-23T10:46:57;95347.56;;;14.95;68.14
11676;BME280;5894;42.768;23.404;2024-02-23T10:49:25;95349.00;;;15.05;67.35
11676;BME280;5894;42.768;23.404;2024-02-23T10:51:53;95342.22;;;15.07;67.32
11676;BME280;5894;42.768;23.404;2024-02-23T10:54:20;95316.91;;;14.98;68.06
11676;BME280;5894;42.768;23.404;2024-02-23T10:56:50;95350.19;;;15.20;66.19
11676;BME280;5894;42.768;23.404;2024-02-23T10:59:17;95339.34;;;15.25;66.03
11676;BME280;5894;42.768;23.404;2024-02-23T11:01:48;95337.00;;;15.23;66.45
11676;BME280;5894;42.768;23.404;2024-02-23T11:04:16;95317.88;;;15.18;66.67
11676;BME280;5894;42.768;23.404;2024-02-23T11:06:49;95273.56;;;14.94;63.79
11676;BME280;5894;42.768;23.404;2024-02-23T11:09:16;95317.50;;;15.31;64.02
11676;BME280;5894;42.768;23.404;2024-02-23T11:11:52;95307.66;;;15.32;64.38
11676;BME280;5894;42.768;23.404;2024-02-23T11:14:29;95281.38;;;15.15;64.28
11676;BME280;5894;42.768;23.404;2024-02-23T11:16:59;95309.88;;;15.30;63.62
11676;BME280;5894;42.768;23.404;2024-02-23T11:19:33;95294.38;;;15.32;64.45
11676;BME280;5894;42.768;23.404;2024-02-23T11:22:01;95296.34;;;15.35;64.76
11676;BME280;5894;42.768;23.404;2024-02-23T11:24:29;95310.94;;;15.41;64.94
11676;BME280;5894;42.768;23.404;2024-02-23T11:26:57;95292.78;;;15.43;62.92
11676;BME280;5894;42.768;23.404;2024-02-23T11:29:26;95299.84;;;15.51;63.25
11676;BME280;5894;42.768;23.404;2024-02-23T11:31:55;95248.25;;;15.24;63.49
11676;BME280;5894;42.768;23.404;2024-02-23T11:34:28;95282.00;;;15.52;63.45
11676;BME280;5894;42.768;23.404;2024-02-23T11:36:56;95282.13;;;15.55;63.02
11676;BME280;5894;42.768;23.404;2024-02-23T11:39:26;95276.34;;;15.53;64.36
11676;BME280;5894;42.768;23.404;2024-02-23T11:41:53;95275.00;;;15.59;64.14
11676;BME280;5894;42.768;23.404;2024-02-23T11:44:20;95275.13;;;15.51;61.95
11676;BME280;5894;42.768;23.404;2024-02-23T11:46:47;95273.25;;;15.51;62.56
11676;BME280;5894;42.768;23.404;2024-02-23T11:49:15;95270.91;;;15.62;62.08
11676;BME280;5894;42.768;23.404;2024-02-23T11:51:44;95276.22;;;15.62;61.49
11676;BME280;5894;42.768;23.404;2024-02-23T11:54:11;95265.66;;;15.77;61.61
11676;BME280;5894;42.768;23.404;2024-02-23T11:56:40;95256.47;;;15.91;59.26
11676;BME280;5894;42.768;23.404;2024-02-23T11:59:08;95268.13;;;16.02;61.29
11676;BME280;5894;42.768;23.404;2024-02-23T12:01:35;95219.50;;;15.86;59.34
11676;BME280;5894;42.768;23.404;2024-02-23T12:04:02;95259.31;;;16.13;59.97
11676;BME280;5894;42.768;23.404;2024-02-23T12:06:29;95255.97;;;16.17;59.33
11676;BME280;5894;42.768;23.404;2024-02-23T12:09:00;95247.66;;;16.18;58.19
11676;BME280;5894;42.768;23.404;2024-02-23T12:11:27;95241.63;;;16.21;58.93
11676;BME280;5894;42.768;23.404;2024-02-23T12:13:55;95235.78;;;16.15;58.58
11676;BME280;5894;42.768;23.404;2024-02-23T12:16:22;95256.13;;;16.24;59.37
11676;BME280;5894;42.768;23.404;2024-02-23T12:18:53;95244.72;;;16.23;58.69
11676;BME280;5894;42.768;23.404;2024-02-23T12:21:21;95234.34;;;16.18;57.80
11676;BME280;5894;42.768;23.404;2024-02-23T12:23:49;95243.09;;;16.19;57.42
11676;BME280;5894;42.768;23.404;2024-02-23T12:26:19;95200.72;;;15.94;56.76
11676;BME280;5894;42.768;23.404;2024-02-23T12:28:46;95232.88;;;16.21;58.13
11676;BME280;5894;42.768;23.404;2024-02-23T12:31:13;95226.88;;;16.24;55.12
11676;BME280;5894;42.768;23.404;2024-02-23T12:33:41;95218.28;;;16.14;55.21
11676;BME280;5894;42.768;23.404;2024-02-23T12:36:13;95226.50;;;16.09;57.52
11676;BME280;5894;42.768;23.404;2024-02-23T12:38:41;95225.41;;;16.10;57.42
11676;BME280;5894;42.768;23.404;2024-02-23T12:41:08;95222.59;;;16.03;57.29
11676;BME280;5894;42.768;23.404;2024-02-23T12:43:36;95222.16;;;16.01;58.06
11676;BME280;5894;42.768;23.404;2024-02-23T12:46:03;95227.28;;;16.10;58.23
11676;BME280;5894;42.768;23.404;2024-02-23T12:48:32;95222.25;;;16.05;58.39
11676;BME280;5894;42.768;23.404;2024-02-23T12:50:59;95215.13;;;16.09;56.41
11676;BME280;5894;42.768;23.404;2024-02-23T12:53:34;95213.22;;;16.09;58.03
11676;BME280;5894;42.768;23.404;2024-02-23T12:56:06;95217.19;;;16.15;56.84
11676;BME280;5894;42.768;23.404;2024-02-23T12:58:36;95209.28;;;16.19;56.06
11676;BME280;5894;42.768;23.404;2024-02-23T13:01:04;95210.75;;;16.17;56.06
11676;BME280;5894;42.768;23.404;2024-02-23T13:03:32;95200.53;;;16.19;56.46